Aviation Digital Data Service (ADDS)

Output produced by METARs form (0244 UTC 24 July 2017)
found at http://www.aviationweather.gov/adds/metars/
 
BKPR 240230Z VRB01KT CAVOK 19/12 Q1014 NOSIG
TAF BKPR 232330Z 2400/2424 25006KT 9999 FEW050 
     TEMPO 2412/2420 24018KT